Time;durP1;ratioP1;P1;durP2;ratioP2;P2;SDS_P1;SDS_P2;PMS_P1;PMS_P2;Temp;Humidity;BMP_temperature;BMP_pressure;BME280_temperature;BME280_humidity;BME280_pressure;Samples;Min_cycle;Max_cycle;Signal;HPM_P1;HPM_P2
2020/12/05 00:01:00;;;;;;;48.75;26.58;;;0.70;99.90;;;;;;5047879;28;20029;-46
2020/12/05 00:03:26;;;;;;;47.88;26.90;;;0.70;99.90;;;;;;5048744;28;20119;-46
2020/12/05 00:05:51;;;;;;;51.65;26.08;;;0.70;99.90;;;;;;5048907;28;20076;-46
2020/12/05 00:08:17;;;;;;;45.80;25.92;;;0.70;99.90;;;;;;5048430;28;20028;-45
2020/12/05 00:10:42;;;;;;;47.25;26.58;;;0.60;99.90;;;;;;5047613;28;20489;-47
2020/12/05 00:13:08;;;;;;;51.50;26.95;;;0.60;99.90;;;;;;5048273;28;20025;-46
2020/12/05 00:15:34;;;;;;;48.95;26.90;;;0.60;99.90;;;;;;5048478;28;20025;-46
2020/12/05 00:17:59;;;;;;;47.78;24.77;;;0.60;99.90;;;;;;5048097;28;20478;-45
2020/12/05 00:20:25;;;;;;;47.35;26.67;;;0.60;99.90;;;;;;5046660;28;20025;-48
2020/12/05 00:22:50;;;;;;;51.60;25.27;;;0.60;99.90;;;;;;5041969;28;20025;-46
2020/12/05 00:25:16;;;;;;;56.13;27.48;;;0.60;99.90;;;;;;5048215;28;20346;-45
2020/12/05 00:27:41;;;;;;;50.88;26.48;;;0.60;99.90;;;;;;5048431;28;20060;-48
2020/12/05 00:30:07;;;;;;;50.50;28.08;;;0.60;99.90;;;;;;5034672;28;20434;-47
2020/12/05 00:32:32;;;;;;;49.22;27.23;;;0.60;99.90;;;;;;5046901;28;20033;-46
2020/12/05 00:34:57;;;;;;;52.03;26.50;;;0.60;99.90;;;;;;5046676;28;20025;-45
2020/12/05 00:37:26;;;;;;;51.55;27.92;;;0.50;99.90;;;;;;5048070;28;20092;-47
2020/12/05 00:39:52;;;;;;;46.97;26.60;;;0.60;99.90;;;;;;5047734;28;20150;-47
2020/12/05 00:42:17;;;;;;;49.92;27.02;;;0.60;99.90;;;;;;5047474;28;20121;-45
2020/12/05 00:44:43;;;;;;;49.97;27.70;;;0.60;99.90;;;;;;5046814;28;20021;-46
2020/12/05 00:47:08;;;;;;;53.63;28.35;;;0.60;99.90;;;;;;5048039;28;20025;-46
2020/12/05 00:49:34;;;;;;;49.88;25.98;;;0.60;99.90;;;;;;5048145;28;20025;-47
2020/12/05 00:51:59;;;;;;;50.88;26.83;;;0.70;99.90;;;;;;5045047;28;20032;-48
2020/12/05 00:54:25;;;;;;;52.70;27.38;;;0.70;99.90;;;;;;5043945;28;20164;-46
2020/12/05 00:56:52;;;;;;;49.30;27.33;;;0.70;99.90;;;;;;5036581;28;20035;-46
2020/12/05 00:59:17;;;;;;;49.85;27.25;;;0.70;99.90;;;;;;5031897;28;20483;-47
2020/12/05 01:01:43;;;;;;;53.90;26.63;;;0.70;99.90;;;;;;5031273;28;20040;-47
2020/12/05 01:04:08;;;;;;;50.13;26.55;;;0.70;99.90;;;;;;5032125;28;20266;-46
2020/12/05 01:06:33;;;;;;;53.88;27.48;;;0.70;99.90;;;;;;5031834;28;20021;-45
2020/12/05 01:08:59;;;;;;;50.60;27.35;;;0.80;99.90;;;;;;5031382;28;20022;-46
2020/12/05 01:11:25;;;;;;;55.95;26.48;;;0.80;99.90;;;;;;5029763;28;20659;-46
2020/12/05 01:13:50;;;;;;;47.78;26.15;;;0.80;99.90;;;;;;5031872;28;20330;-47
2020/12/05 01:16:17;;;;;;;47.60;26.55;;;0.80;99.90;;;;;;5031917;28;20060;-46
2020/12/05 01:18:43;;;;;;;54.13;27.35;;;0.80;99.90;;;;;;5030238;28;20449;-45
2020/12/05 01:21:10;;;;;;;49.38;27.40;;;0.80;99.90;;;;;;5030735;28;20020;-47
2020/12/05 01:23:37;;;;;;;48.28;26.42;;;0.80;99.90;;;;;;5031666;28;20053;-46
2020/12/05 01:26:03;;;;;;;50.72;27.90;;;0.80;99.90;;;;;;5031471;28;20022;-47
2020/12/05 01:28:28;;;;;;;52.10;27.67;;;0.80;99.90;;;;;;5031551;28;20020;-47
2020/12/05 01:30:54;;;;;;;55.05;28.05;;;0.80;99.90;;;;;;5036791;28;20025;-47
2020/12/05 01:33:19;;;;;;;52.33;27.10;;;0.80;99.90;;;;;;5051420;28;20490;-47
2020/12/05 01:35:45;;;;;;;54.20;28.17;;;0.80;99.90;;;;;;5051387;28;20029;-45
2020/12/05 01:38:10;;;;;;;54.22;29.60;;;0.80;99.90;;;;;;5051788;28;20044;-46
2020/12/05 01:40:36;;;;;;;53.33;29.38;;;0.80;99.90;;;;;;5048888;28;20509;-45
2020/12/05 01:43:01;;;;;;;53.83;26.48;;;0.90;99.90;;;;;;5049818;28;20044;-48
2020/12/05 01:45:27;;;;;;;46.75;26.20;;;0.80;99.90;;;;;;5051562;28;20027;-47
2020/12/05 01:47:53;;;;;;;51.65;27.67;;;0.90;99.90;;;;;;5049567;28;20072;-52
2020/12/05 01:50:18;;;;;;;50.42;26.58;;;0.90;99.90;;;;;;5050686;28;20033;-45
2020/12/05 01:52:46;;;;;;;51.53;28.33;;;0.90;99.90;;;;;;5048798;28;20024;-45
2020/12/05 01:55:12;;;;;;;49.58;25.95;;;0.90;99.90;;;;;;5051061;28;20065;-47
2020/12/05 01:57:37;;;;;;;53.78;28.48;;;0.80;99.90;;;;;;5051247;28;20205;-46
2020/12/05 02:00:05;;;;;;;51.55;28.83;;;0.90;99.90;;;;;;5051110;28;20033;-47
2020/12/05 02:02:30;;;;;;;53.85;29.25;;;0.90;99.90;;;;;;5050371;28;20025;-46
2020/12/05 02:05:13;;;;;;;55.60;28.55;;;0.90;99.90;;;;;;5050986;28;20017;-46
2020/12/05 02:07:55;;;;;;;54.92;28.20;;;0.90;99.90;;;;;;5050234;28;20032;-47
2020/12/05 02:10:25;;;;;;;54.03;27.15;;;1.00;99.90;;;;;;5050018;28;20017;-46
2020/12/05 02:13:02;;;;;;;58.05;30.10;;;1.00;99.90;;;;;;5050502;28;20033;-46
2020/12/05 02:15:31;;;;;;;52.20;27.77;;;1.00;99.90;;;;;;5049300;28;20025;-46
2020/12/05 02:18:00;;;;;;;49.20;26.10;;;1.00;99.90;;;;;;5051054;28;20179;-47
2020/12/05 02:20:37;;;;;;;51.20;26.08;;;1.00;99.90;;;;;;5048843;28;20382;-46
2020/12/05 02:23:14;;;;;;;49.13;27.17;;;1.00;99.90;;;;;;5045353;28;20263;-44
2020/12/05 02:25:45;;;;;;;52.63;27.20;;;1.10;99.90;;;;;;5050094;28;20091;-45
2020/12/05 02:28:11;;;;;;;53.13;29.00;;;1.10;99.90;;;;;;5050548;28;20244;-46
2020/12/05 02:30:37;;;;;;;47.75;25.38;;;1.10;99.90;;;;;;5035559;28;20027;-46
2020/12/05 02:33:04;;;;;;;51.80;26.73;;;1.10;99.90;;;;;;5050239;28;20024;-44
2020/12/05 02:35:30;;;;;;;51.92;27.15;;;1.10;99.90;;;;;;5048515;28;20033;-46
2020/12/05 02:38:17;;;;;;;50.80;25.10;;;1.10;99.90;;;;;;5050215;28;20036;-48
2020/12/05 02:40:42;;;;;;;48.85;26.67;;;1.10;99.90;;;;;;5048965;28;20024;-47
2020/12/05 02:43:08;;;;;;;49.17;27.83;;;1.00;99.90;;;;;;5050311;28;20028;-47
2020/12/05 02:45:34;;;;;;;49.63;26.83;;;1.00;99.90;;;;;;5048678;28;20029;-47
2020/12/05 02:48:01;;;;;;;50.20;26.98;;;1.10;99.90;;;;;;5049930;28;20021;-47
2020/12/05 02:50:27;;;;;;;50.47;26.67;;;1.00;99.90;;;;;;5046798;28;20474;-47
2020/12/05 02:52:52;;;;;;;47.58;25.98;;;1.10;99.90;;;;;;5049156;28;20025;-47
2020/12/05 02:55:18;;;;;;;45.72;25.08;;;1.10;99.90;;;;;;5049807;28;20464;-46
2020/12/05 02:57:43;;;;;;;47.53;26.00;;;1.10;99.90;;;;;;5049992;28;20021;-45
2020/12/05 03:00:09;;;;;;;47.30;25.48;;;1.10;99.90;;;;;;5050223;28;20033;-45
2020/12/05 03:02:34;;;;;;;52.25;27.05;;;1.20;99.90;;;;;;5049116;28;20063;-46
2020/12/05 03:05:00;;;;;;;51.25;26.33;;;1.20;99.90;;;;;;5050039;28;20364;-46
2020/12/05 03:07:25;;;;;;;50.25;27.27;;;1.20;99.90;;;;;;5049818;28;20036;-46
2020/12/05 03:09:51;;;;;;;50.88;26.13;;;1.10;99.90;;;;;;5049657;28;20052;-45
2020/12/05 03:12:16;;;;;;;48.33;25.58;;;1.10;99.90;;;;;;5049152;28;20518;-46
2020/12/05 03:14:42;;;;;;;48.35;26.85;;;1.20;99.90;;;;;;5049620;28;20454;-48
2020/12/05 03:17:07;;;;;;;46.80;25.85;;;1.20;99.90;;;;;;5049507;28;20108;-47
2020/12/05 03:19:33;;;;;;;59.15;26.83;;;1.20;99.90;;;;;;5048792;28;20025;-47
2020/12/05 03:21:58;;;;;;;46.75;25.48;;;1.20;99.90;;;;;;5041459;28;20260;-47
2020/12/05 03:24:24;;;;;;;45.60;24.25;;;1.20;99.90;;;;;;5049349;28;20310;-48
2020/12/05 03:26:49;;;;;;;51.22;25.55;;;1.20;99.90;;;;;;5049693;28;20032;-48
2020/12/05 03:29:17;;;;;;;50.95;26.70;;;1.20;99.90;;;;;;5043024;28;20018;-45
2020/12/05 03:31:48;;;;;;;51.78;26.58;;;1.20;99.90;;;;;;5040129;28;20478;-47
2020/12/05 03:34:15;;;;;;;45.28;24.65;;;1.10;99.90;;;;;;5049342;28;20025;-46
2020/12/05 03:36:41;;;;;;;45.65;25.38;;;1.20;99.90;;;;;;5049357;28;20096;-46
2020/12/05 03:39:07;;;;;;;49.83;26.65;;;1.20;99.90;;;;;;5049260;28;20113;-47
2020/12/05 03:41:32;;;;;;;45.15;26.17;;;1.20;99.90;;;;;;5048225;28;20540;-49
2020/12/05 03:43:58;;;;;;;46.97;26.00;;;1.20;99.90;;;;;;5049307;28;20029;-48
2020/12/05 03:46:23;;;;;;;50.83;27.42;;;1.20;99.90;;;;;;5049409;28;20283;-47
2020/12/05 03:48:49;;;;;;;52.75;27.38;;;1.20;99.90;;;;;;5049466;28;20025;-47
2020/12/05 03:51:15;;;;;;;52.80;28.40;;;1.30;99.90;;;;;;5045344;28;20096;-47
2020/12/05 03:53:40;;;;;;;49.65;27.63;;;1.20;99.90;;;;;;5047337;28;20044;-49
2020/12/05 03:56:06;;;;;;;52.80;27.17;;;1.20;99.90;;;;;;5048524;28;20055;-48
2020/12/05 03:58:31;;;;;;;51.50;27.20;;;1.20;99.90;;;;;;5049003;28;20029;-48
2020/12/05 04:00:57;;;;;;;47.63;26.45;;;1.20;99.90;;;;;;5048099;28;20300;-48
2020/12/05 04:03:22;;;;;;;49.88;26.50;;;1.30;99.90;;;;;;5049156;28;20028;-47
2020/12/05 04:05:48;;;;;;;47.25;27.17;;;1.30;99.90;;;;;;5048907;28;20024;-49
2020/12/05 04:08:13;;;;;;;50.85;28.00;;;1.20;99.90;;;;;;5048852;28;20021;-48
2020/12/05 04:10:39;;;;;;;51.42;28.27;;;1.20;99.90;;;;;;5047892;28;20103;-46
2020/12/05 04:13:04;;;;;;;49.30;27.02;;;1.20;99.90;;;;;;5048450;28;20109;-46
2020/12/05 04:15:30;;;;;;;55.88;27.17;;;1.20;99.90;;;;;;5048655;28;20092;-45
2020/12/05 04:17:55;;;;;;;51.72;26.13;;;1.30;99.90;;;;;;5048715;28;20028;-45
2020/12/05 04:20:21;;;;;;;50.35;28.55;;;1.20;99.90;;;;;;5042788;28;20482;-46
2020/12/05 04:22:47;;;;;;;55.92;27.83;;;1.30;99.90;;;;;;5034121;28;20394;-47
2020/12/05 04:25:13;;;;;;;50.47;26.90;;;1.30;99.90;;;;;;5027606;28;20067;-46
2020/12/05 04:27:39;;;;;;;53.78;27.40;;;1.20;99.90;;;;;;5028272;28;20033;-46
2020/12/05 04:30:05;;;;;;;52.05;26.52;;;1.30;99.90;;;;;;5027127;28;20529;-46
2020/12/05 04:32:30;;;;;;;52.60;28.30;;;1.30;99.90;;;;;;5027147;28;20048;-48
2020/12/05 04:34:56;;;;;;;47.75;26.38;;;1.30;99.90;;;;;;5027738;28;20418;-48
2020/12/05 04:37:23;;;;;;;53.95;28.67;;;1.30;99.90;;;;;;5028109;28;20071;-48
2020/12/05 04:39:49;;;;;;;52.88;27.23;;;1.30;99.90;;;;;;5027770;28;20025;-48
2020/12/05 04:42:15;;;;;;;52.30;27.90;;;1.30;99.90;;;;;;5027245;28;20020;-47
2020/12/05 04:44:41;;;;;;;55.63;27.90;;;1.30;99.90;;;;;;5029367;28;20018;-47
2020/12/05 04:47:08;;;;;;;56.17;28.60;;;1.30;99.90;;;;;;5028048;28;20188;-48
2020/12/05 04:49:36;;;;;;;54.20;26.80;;;1.40;99.90;;;;;;5026402;28;20055;-47
2020/12/05 04:52:23;;;;;;;50.65;26.77;;;1.40;99.90;;;;;;5028060;28;20029;-46
2020/12/05 04:54:53;;;;;;;51.75;26.40;;;1.40;99.90;;;;;;5027676;28;20021;-47
2020/12/05 04:57:23;;;;;;;;;;;1.40;99.90;;;;;;5028573;28;20033;-46
2020/12/05 04:59:50;;;;;;;51.65;26.45;;;1.40;99.90;;;;;;5026739;28;19909;-48
2020/12/05 05:02:18;;;;;;;52.80;27.48;;;1.40;99.90;;;;;;5027799;28;20022;-46
2020/12/05 05:04:44;;;;;;;51.08;26.15;;;1.40;99.90;;;;;;5027911;28;20010;-48
2020/12/05 05:07:10;;;;;;;54.58;28.02;;;1.40;99.90;;;;;;5028086;28;20530;-48
2020/12/05 05:09:55;;;;;;;49.53;27.52;;;1.40;99.90;;;;;;5027649;28;20076;-45
2020/12/05 05:12:35;;;;;;;51.55;27.90;;;1.40;99.90;;;;;;5027497;28;20272;-46
2020/12/05 05:15:01;;;;;;;54.65;28.42;;;1.40;99.90;;;;;;5027738;28;20387;-47
2020/12/05 05:17:26;;;;;;;47.78;26.58;;;1.40;99.90;;;;;;5027774;28;20022;-48
2020/12/05 05:19:52;;;;;;;50.85;26.60;;;1.40;99.90;;;;;;5027668;28;20060;-48
2020/12/05 05:22:21;;;;;;;47.17;25.27;;;1.40;99.90;;;;;;5027554;28;20384;-48
2020/12/05 05:25:03;;;;;;;51.65;26.60;;;1.50;99.90;;;;;;5026708;28;20072;-48
2020/12/05 05:27:29;;;;;;;47.33;25.80;;;1.50;99.90;;;;;;5026945;28;20461;-46
2020/12/05 05:30:06;;;;;;;50.65;27.88;;;1.50;99.90;;;;;;5033679;28;20025;-46
2020/12/05 05:32:31;;;;;;;57.40;29.90;;;1.50;99.90;;;;;;5032794;28;20029;-48
2020/12/05 05:35:14;;;;;;;54.30;28.30;;;1.40;99.90;;;;;;5037295;28;20032;-47
2020/12/05 05:37:44;;;;;;;51.42;29.63;;;1.50;99.90;;;;;;5047583;28;20040;-46
2020/12/05 05:40:12;;;;;;;53.92;27.50;;;1.40;99.90;;;;;;5047625;28;20064;-47
2020/12/05 05:42:40;;;;;;;53.22;28.00;;;1.40;99.90;;;;;;5035418;28;20503;-48
2020/12/05 05:45:26;;;;;;;54.40;29.55;;;1.50;99.90;;;;;;5051746;28;20017;-51
2020/12/05 05:48:00;;;;;;;49.50;26.52;;;1.50;99.90;;;;;;5051286;28;20010;-46
2020/12/05 05:50:28;;;;;;;59.33;31.20;;;1.50;99.90;;;;;;5050938;28;20055;-47
2020/12/05 05:52:56;;;;;;;57.67;30.48;;;1.50;99.90;;;;;;5050949;28;20033;-46
2020/12/05 05:55:36;;;;;;;55.80;28.70;;;1.50;99.90;;;;;;5050751;28;20351;-46
2020/12/05 05:58:02;;;;;;;53.72;28.20;;;1.50;99.90;;;;;;5048106;28;20343;-49
2020/12/05 06:00:29;;;;;;;59.47;30.10;;;1.50;99.90;;;;;;5027977;28;20468;-47
2020/12/05 06:03:00;;;;;;;57.08;28.38;;;1.50;99.90;;;;;;5029212;28;20370;-46
2020/12/05 06:05:29;;;;;;;60.83;28.88;;;1.60;99.90;;;;;;5032048;28;20014;-48
2020/12/05 06:07:54;;;;;;;60.08;30.38;;;1.50;99.90;;;;;;5032257;28;20017;-50
2020/12/05 06:10:20;;;;;;;56.58;29.20;;;1.50;99.90;;;;;;5031445;28;20037;-47
2020/12/05 06:12:46;;;;;;;54.20;29.52;;;1.60;99.90;;;;;;5031857;28;20025;-51
2020/12/05 06:15:11;;;;;;;52.95;27.90;;;1.50;99.90;;;;;;5031940;28;20042;-49
2020/12/05 06:17:37;;;;;;;53.60;29.40;;;1.50;99.90;;;;;;5031909;28;20079;-51
2020/12/05 06:20:03;;;;;;;56.20;29.55;;;1.60;99.90;;;;;;5030388;28;20347;-51
2020/12/05 06:22:46;;;;;;;59.08;30.45;;;1.60;99.90;;;;;;5031016;28;20025;-46
2020/12/05 06:25:12;;;;;;;56.72;29.45;;;1.60;99.90;;;;;;5030136;28;20029;-48
2020/12/05 06:27:56;;;;;;;59.42;30.10;;;1.60;99.90;;;;;;5029549;28;20056;-49
2020/12/05 06:30:22;;;;;;;58.05;27.30;;;1.60;99.90;;;;;;5033697;28;20036;-46
2020/12/05 06:32:48;;;;;;;61.97;32.08;;;1.60;99.90;;;;;;5030571;28;20017;-47
2020/12/05 06:35:22;;;;;;;53.45;28.10;;;1.60;99.90;;;;;;5031349;28;20075;-50
2020/12/05 06:37:50;;;;;;;65.55;32.45;;;1.60;99.90;;;;;;5031687;28;20021;-46
2020/12/05 06:40:15;;;;;;;58.10;29.75;;;1.60;99.90;;;;;;5030934;28;20497;-47
2020/12/05 06:42:46;;;;;;;58.38;31.42;;;1.60;99.90;;;;;;5030503;28;20037;-48
2020/12/05 06:45:26;;;;;;;60.20;29.90;;;1.60;99.90;;;;;;5031244;28;20505;-49
2020/12/05 06:48:07;;;;;;;62.28;31.92;;;1.60;99.90;;;;;;5031141;28;20049;-46
2020/12/05 06:50:34;;;;;;;59.35;28.33;;;1.70;99.90;;;;;;5030571;28;20410;-46
2020/12/05 06:53:00;;;;;;;52.20;27.52;;;1.70;99.90;;;;;;5030091;28;20101;-46
2020/12/05 06:55:31;;;;;;;52.78;28.80;;;1.60;99.90;;;;;;5030394;28;20408;-47
2020/12/05 06:58:05;;;;;;;55.38;29.52;;;1.70;99.90;;;;;;5029725;28;20067;-48
2020/12/05 07:00:37;;;;;;;60.22;29.80;;;1.70;99.90;;;;;;5030467;28;20048;-47
2020/12/05 07:03:06;;;;;;;57.70;30.52;;;1.70;99.90;;;;;;5030159;28;20021;-45
2020/12/05 07:05:34;;;;;;;59.63;30.58;;;1.70;99.90;;;;;;5029630;28;20029;-47
2020/12/05 07:08:01;;;;;;;56.13;29.73;;;1.70;99.90;;;;;;5029841;28;20503;-45
2020/12/05 07:11:15;;;;;;;57.38;30.45;;;1.70;99.90;;;;;;5028908;28;20029;-47
2020/12/05 07:13:41;;;;;;;56.35;28.90;;;1.80;99.90;;;;;;5040335;28;20064;-46
2020/12/05 07:16:11;;;;;;;54.92;31.63;;;1.70;99.90;;;;;;5029484;28;20636;-47
2020/12/05 07:18:48;;;;;;;58.72;29.33;;;1.80;99.90;;;;;;5031037;28;20032;-46
2020/12/05 07:21:14;;;;;;;65.10;32.38;;;1.80;99.90;;;;;;5037644;28;20106;-46
2020/12/05 07:23:40;;;;;;;60.22;30.30;;;1.80;99.90;;;;;;5029570;28;20600;-48
2020/12/05 07:26:06;;;;;;;61.00;30.55;;;1.70;99.90;;;;;;5030446;28;20467;-48
2020/12/05 07:28:33;;;;;;;60.15;31.80;;;1.80;99.90;;;;;;5031025;28;20029;-46
2020/12/05 07:30:59;;;;;;;60.88;30.27;;;1.70;99.90;;;;;;5030216;28;20108;-46
2020/12/05 07:33:24;;;;;;;60.30;31.13;;;1.70;99.90;;;;;;5030962;28;20159;-46
2020/12/05 07:36:04;;;;;;;62.20;32.15;;;1.70;99.90;;;;;;5049714;28;20067;-48
2020/12/05 07:38:32;;;;;;;57.10;30.35;;;1.70;99.90;;;;;;5050935;28;20642;-48
2020/12/05 07:40:58;;;;;;;59.88;32.58;;;1.70;99.90;;;;;;5049720;28;20361;-47
2020/12/05 07:43:24;;;;;;;60.38;30.10;;;1.70;99.90;;;;;;5050788;28;20028;-47
2020/12/05 07:45:52;;;;;;;60.17;31.63;;;1.70;99.90;;;;;;5049273;28;20017;-46
2020/12/05 07:48:20;;;;;;;63.85;31.63;;;1.70;99.90;;;;;;5050847;28;20133;-44
2020/12/05 07:50:46;;;;;;;59.80;31.10;;;1.70;99.90;;;;;;5049033;28;20033;-47
2020/12/05 07:53:29;;;;;;;58.35;30.60;;;1.70;99.90;;;;;;5029711;28;20021;-46
2020/12/05 07:55:55;;;;;;;60.75;31.92;;;1.70;99.90;;;;;;5031352;28;20087;-47
2020/12/05 07:58:21;;;;;;;55.10;27.65;;;1.70;99.90;;;;;;5029278;28;20021;-49
2020/12/05 08:00:47;;;;;;;51.92;28.55;;;1.60;99.90;;;;;;5028555;28;20032;-47
2020/12/05 08:03:14;;;;;;;51.38;27.85;;;1.60;99.90;;;;;;5029411;28;20055;-47
2020/12/05 08:06:05;;;;;;;66.03;31.60;;;1.60;99.90;;;;;;5028951;28;20083;-48
2020/12/05 08:08:31;;;;;;;64.97;33.60;;;1.60;99.90;;;;;;5032568;28;20021;-49
2020/12/05 08:11:01;;;;;;;64.35;32.78;;;1.60;99.90;;;;;;5032026;28;20079;-46
2020/12/05 08:13:29;;;;;;;57.72;31.70;;;1.60;99.90;;;;;;5028199;28;20029;-45
2020/12/05 08:16:02;;;;;;;52.15;28.27;;;1.70;99.90;;;;;;5029325;28;20382;-46
2020/12/05 08:18:28;;;;;;;53.25;29.48;;;1.70;99.90;;;;;;5029591;28;20025;-47
2020/12/05 08:20:54;;;;;;;58.03;31.92;;;1.80;99.90;;;;;;5033435;28;20025;-47
2020/12/05 08:23:31;;;;;;;62.25;32.22;;;1.80;99.90;;;;;;5028606;28;20029;-48
2020/12/05 08:25:59;;;;;;;64.35;32.75;;;1.90;99.90;;;;;;5028782;28;20025;-46
2020/12/05 08:28:28;;;;;;;59.58;31.98;;;1.90;99.90;;;;;;5029386;28;20101;-46
2020/12/05 08:30:55;;;;;;;63.47;31.60;;;2.00;99.90;;;;;;5028793;28;20029;-48
2020/12/05 08:33:21;;;;;;;59.40;31.67;;;2.00;99.90;;;;;;5029386;28;20021;-49
2020/12/05 08:35:47;;;;;;;59.15;30.95;;;2.10;99.90;;;;;;5028683;28;20535;-46
2020/12/05 08:38:21;;;;;;;58.28;31.17;;;2.10;99.90;;;;;;5029624;28;20033;-46
2020/12/05 08:40:56;;;;;;;60.88;30.85;;;2.20;99.90;;;;;;5028707;28;20022;-47
2020/12/05 08:43:25;;;;;;;56.22;30.63;;;2.20;99.90;;;;;;5028498;28;20109;-46
2020/12/05 08:45:50;;;;;;;50.47;28.33;;;2.20;99.90;;;;;;5029692;28;20489;-47
2020/12/05 08:48:17;;;;;;;51.25;28.45;;;2.20;99.90;;;;;;5029567;28;20030;-45
2020/12/05 08:50:43;;;;;;;57.20;28.73;;;2.30;99.90;;;;;;5028901;28;20037;-47
2020/12/05 08:53:10;;;;;;;56.53;30.45;;;2.30;99.90;;;;;;5029575;28;20033;-49
2020/12/05 08:55:36;;;;;;;53.90;29.83;;;2.30;99.90;;;;;;5029259;28;20088;-46
2020/12/05 08:58:04;;;;;;;50.58;29.42;;;2.40;99.90;;;;;;5029665;28;20590;-46
2020/12/05 09:00:31;;;;;;;55.97;30.52;;;2.40;99.90;;;;;;5029005;28;20038;-46
2020/12/05 09:02:57;;;;;;;50.58;28.10;;;2.50;99.90;;;;;;5029303;28;20367;-47
2020/12/05 09:05:23;;;;;;;55.63;29.90;;;2.50;99.90;;;;;;5029503;28;20022;-47
2020/12/05 09:08:06;;;;;;;51.85;29.33;;;2.50;99.90;;;;;;5029280;28;20498;-47
2020/12/05 09:10:35;;;;;;;59.63;32.10;;;2.50;99.90;;;;;;5028564;28;20071;-47
2020/12/05 09:13:05;;;;;;;55.72;32.22;;;2.40;99.90;;;;;;5028649;28;20038;-49
2020/12/05 09:15:30;;;;;;;54.70;28.50;;;2.50;99.90;;;;;;5026848;28;20021;-47
2020/12/05 09:17:57;;;;;;;55.58;30.83;;;2.60;99.90;;;;;;5030739;28;20397;-48
2020/12/05 09:20:23;;;;;;;50.83;30.55;;;2.50;99.90;;;;;;5031259;28;20494;-47
2020/12/05 09:22:54;;;;;;;52.20;30.00;;;2.50;99.90;;;;;;5031580;28;20041;-48
2020/12/05 09:25:32;;;;;;;46.05;26.90;;;2.60;99.90;;;;;;5031328;28;20104;-47
2020/12/05 09:28:01;;;;;;;50.20;27.40;;;2.60;99.90;;;;;;5031406;28;20151;-48
2020/12/05 09:30:29;;;;;;;53.25;28.67;;;2.50;99.90;;;;;;5032406;28;20021;-47
2020/12/05 09:32:55;;;;;;;47.60;27.30;;;2.60;99.90;;;;;;5032933;28;20030;-47
2020/12/05 09:35:23;;;;;;;48.47;27.20;;;2.60;99.90;;;;;;5043839;28;20032;-47
2020/12/05 09:37:49;;;;;;;43.80;25.70;;;2.70;99.90;;;;;;5052990;28;20414;-47
2020/12/05 09:40:18;;;;;;;47.10;25.30;;;2.70;99.90;;;;;;5052655;28;20021;-48
2020/12/05 09:42:45;;;;;;;40.25;23.85;;;3.00;99.90;;;;;;5052541;28;20466;-46
2020/12/05 09:45:12;;;;;;;42.88;22.52;;;3.00;99.90;;;;;;5051296;28;20422;-46
2020/12/05 09:47:41;;;;;;;41.72;23.63;;;3.20;99.90;;;;;;5052680;28;20075;-48
2020/12/05 09:50:08;;;;;;;42.22;22.92;;;3.30;99.90;;;;;;5052341;28;20201;-49
2020/12/05 09:52:33;;;;;;;37.58;21.58;;;3.30;99.90;;;;;;5051200;28;20025;-49
2020/12/05 09:54:59;;;;;;;39.40;20.83;;;3.40;99.90;;;;;;5050469;28;20040;-49
2020/12/05 09:57:24;;;;;;;40.17;22.48;;;3.50;99.90;;;;;;5051710;28;20106;-47
2020/12/05 09:59:50;;;;;;;34.33;21.13;;;3.50;99.90;;;;;;5051131;28;20025;-47
2020/12/05 10:02:16;;;;;;;36.47;20.88;;;3.60;99.90;;;;;;5050579;28;20049;-50
2020/12/05 10:04:42;;;;;;;37.85;20.33;;;3.70;99.90;;;;;;5052335;28;20072;-47
2020/12/05 10:07:07;;;;;;;35.45;19.90;;;3.80;99.90;;;;;;5052318;28;20025;-48
2020/12/05 10:09:34;;;;;;;34.33;19.58;;;3.90;99.90;;;;;;5052192;28;20060;-51
2020/12/05 10:12:00;;;;;;;35.53;20.02;;;4.00;99.90;;;;;;5051307;28;20069;-47
2020/12/05 10:14:25;;;;;;;36.22;19.05;;;4.10;99.90;;;;;;5052068;28;20024;-47
2020/12/05 10:16:51;;;;;;;34.65;20.10;;;4.30;99.90;;;;;;5051983;28;20517;-49
2020/12/05 10:19:16;;;;;;;35.15;20.85;;;4.30;99.90;;;;;;5052188;28;20521;-47
2020/12/05 10:21:47;;;;;;;36.53;21.33;;;4.50;99.90;;;;;;5044044;28;20021;-50
2020/12/05 10:24:13;;;;;;;;;;;4.60;99.90;;;;;;5052622;28;20025;-47
2020/12/05 10:26:38;;;;;;;33.45;17.88;;;4.80;99.90;;;;;;5051773;28;19912;-48
2020/12/05 10:29:04;;;;;;;29.65;17.88;;;4.90;99.90;;;;;;5051663;28;20466;-48
2020/12/05 10:31:29;;;;;;;35.05;18.73;;;5.00;99.90;;;;;;5051256;28;20033;-47
2020/12/05 10:33:55;;;;;;;32.00;19.05;;;5.00;99.90;;;;;;5037913;28;20041;-48
2020/12/05 10:36:20;;;;;;;31.33;18.05;;;5.10;99.90;;;;;;5051904;28;20570;-51
2020/12/05 10:38:46;;;;;;;29.25;17.27;;;5.10;99.90;;;;;;5051579;28;20029;-50
2020/12/05 10:41:43;;;;;;;28.33;16.60;;;5.20;99.90;;;;;;5050580;28;20427;-49
2020/12/05 10:44:10;;;;;;;30.70;15.77;;;5.10;99.90;;;;;;5051684;28;20597;-48
2020/12/05 10:46:47;;;;;;;25.45;14.60;;;5.20;99.90;;;;;;5051566;28;20612;-47
2020/12/05 10:49:13;;;;;;;26.00;14.25;;;5.20;99.90;;;;;;5051535;28;20025;-47
2020/12/05 10:51:40;;;;;;;24.42;15.13;;;5.20;99.90;;;;;;5050919;28;20132;-47
2020/12/05 10:54:06;;;;;;;25.70;15.13;;;5.20;99.90;;;;;;5051502;28;20130;-48
2020/12/05 10:56:32;;;;;;;24.73;16.33;;;5.10;99.90;;;;;;5050162;28;20094;-48
2020/12/05 10:58:57;;;;;;;23.15;14.75;;;5.10;99.90;;;;;;5049965;28;20029;-49
2020/12/05 11:01:23;;;;;;;24.05;14.52;;;5.10;99.90;;;;;;5048608;28;20667;-50
2020/12/05 11:03:49;;;;;;;24.33;14.23;;;5.10;99.90;;;;;;5029555;28;20056;-48
2020/12/05 11:06:25;;;;;;;23.05;13.23;;;5.10;99.90;;;;;;5029814;28;20018;-47
2020/12/05 11:08:51;;;;;;;21.65;14.20;;;5.10;99.90;;;;;;5030359;28;20025;-49
2020/12/05 11:11:17;;;;;;;21.95;12.85;;;5.20;99.90;;;;;;5031717;28;20061;-52
2020/12/05 11:13:43;;;;;;;23.25;13.43;;;5.50;99.90;;;;;;5030411;28;20068;-50
2020/12/05 11:16:08;;;;;;;23.27;12.10;;;5.50;99.90;;;;;;5030119;28;20033;-48
2020/12/05 11:18:34;;;;;;;24.02;14.45;;;5.50;99.90;;;;;;5030299;28;20026;-48
2020/12/05 11:21:00;;;;;;;20.90;12.20;;;5.50;99.90;;;;;;5028781;28;20025;-50
2020/12/05 11:23:25;;;;;;;22.10;13.15;;;5.30;99.90;;;;;;5030466;28;20486;-49
2020/12/05 11:25:51;;;;;;;18.20;11.18;;;5.30;99.90;;;;;;5028605;28;20074;-49
2020/12/05 11:28:16;;;;;;;21.73;12.40;;;5.20;99.90;;;;;;5030229;28;20041;-49
2020/12/05 11:30:42;;;;;;;20.17;12.48;;;5.20;99.90;;;;;;5029142;28;20419;-48
2020/12/05 11:33:07;;;;;;;20.60;12.10;;;5.20;99.90;;;;;;5029509;28;20036;-48
2020/12/05 11:35:32;;;;;;;17.95;11.23;;;5.20;99.90;;;;;;5028146;28;20104;-49
2020/12/05 11:37:58;;;;;;;15.43;9.60;;;5.20;99.90;;;;;;5029271;28;20029;-47
2020/12/05 11:40:23;;;;;;;21.75;11.20;;;5.40;99.90;;;;;;5037937;28;20053;-47
2020/12/05 11:42:49;;;;;;;19.13;12.00;;;5.40;99.90;;;;;;5030188;28;20022;-48
2020/12/05 11:45:14;;;;;;;19.15;10.80;;;5.40;99.90;;;;;;5029932;28;20032;-48
2020/12/05 11:47:40;;;;;;;18.60;11.75;;;5.30;99.90;;;;;;5033612;28;20029;-47
2020/12/05 11:50:06;;;;;;;16.63;9.82;;;5.30;99.90;;;;;;5036857;28;20038;-47
2020/12/05 11:52:32;;;;;;;20.13;10.95;;;5.30;99.90;;;;;;5028137;28;20017;-47
2020/12/05 11:54:57;;;;;;;19.15;10.80;;;5.20;99.90;;;;;;5029868;28;20615;-47
2020/12/05 11:57:23;;;;;;;17.77;10.85;;;5.30;99.90;;;;;;5026656;28;20124;-47
2020/12/05 11:59:48;;;;;;;20.50;11.77;;;5.40;99.90;;;;;;5028288;28;20029;-47
2020/12/05 12:02:14;;;;;;;16.48;10.68;;;5.50;99.90;;;;;;5025380;28;20447;-47
2020/12/05 12:04:40;;;;;;;22.00;11.63;;;5.50;99.90;;;;;;5028236;28;20021;-47
2020/12/05 12:07:06;;;;;;;20.10;11.93;;;5.50;99.90;;;;;;5026381;28;20356;-47
2020/12/05 12:09:32;;;;;;;18.98;11.85;;;5.50;99.90;;;;;;5026309;28;20056;-46
2020/12/05 12:11:57;;;;;;;21.27;12.90;;;5.50;99.90;;;;;;5026578;28;20057;-47
2020/12/05 12:14:23;;;;;;;17.92;11.35;;;5.40;99.90;;;;;;5027407;28;20455;-50
2020/12/05 12:16:48;;;;;;;19.08;11.20;;;5.40;99.90;;;;;;5027058;28;20037;-46
2020/12/05 12:19:14;;;;;;;18.88;11.50;;;5.30;99.90;;;;;;5028914;28;20025;-46
2020/12/05 12:21:39;;;;;;;18.70;11.32;;;5.30;99.90;;;;;;5028974;28;20029;-48
2020/12/05 12:24:05;;;;;;;19.23;11.10;;;5.30;99.90;;;;;;5028057;28;20030;-47
2020/12/05 12:26:31;;;;;;;18.58;11.30;;;5.40;99.90;;;;;;5029140;28;20026;-47
2020/12/05 12:28:56;;;;;;;16.92;10.68;;;5.30;99.90;;;;;;5028697;28;20025;-47
2020/12/05 12:31:23;;;;;;;20.77;11.98;;;5.30;99.90;;;;;;5027407;28;20025;-47
2020/12/05 12:33:48;;;;;;;18.35;11.23;;;5.40;99.90;;;;;;5027783;28;20040;-49
2020/12/05 12:36:18;;;;;;;17.80;10.57;;;5.40;99.90;;;;;;5028782;28;20041;-47
2020/12/05 12:38:43;;;;;;;19.42;9.93;;;5.50;99.90;;;;;;5027940;28;20064;-47
2020/12/05 12:41:16;;;;;;;17.40;11.15;;;5.50;99.90;;;;;;5027387;28;20444;-46